createdAt,value
2024-02-10T00:00:46.856Z,13.32
2024-02-10T00:03:32.597Z,13.33
2024-02-10T00:06:17.909Z,13.51
2024-02-10T00:09:07.502Z,13.31
2024-02-10T00:11:52.727Z,13.33
2024-02-10T00:14:38.057Z,13.35
2024-02-10T00:17:28.924Z,13.06
2024-02-10T00:20:17.205Z,13.28
2024-02-10T00:23:05.521Z,13.05
2024-02-10T00:25:54.216Z,13.40
2024-02-10T00:28:40.282Z,13.26
2024-02-10T00:31:25.887Z,13.36
2024-02-10T00:34:11.347Z,13.39
2024-02-10T00:36:56.569Z,13.48
2024-02-10T00:39:42.047Z,13.55
2024-02-10T00:42:28.804Z,13.58
2024-02-10T00:45:14.178Z,13.42
2024-02-10T00:48:03.609Z,13.39
2024-02-10T00:50:49.051Z,13.39
2024-02-10T00:53:41.129Z,13.55
2024-02-10T00:56:27.001Z,13.40
2024-02-10T00:59:16.978Z,13.22
2024-02-10T01:02:06.366Z,13.29
2024-02-10T01:04:55.532Z,13.45
2024-02-10T01:07:42.052Z,13.43
2024-02-10T01:10:27.312Z,13.49
2024-02-10T01:13:12.733Z,13.52
2024-02-10T01:15:57.804Z,13.39
2024-02-10T01:18:47.769Z,13.47
2024-02-10T01:21:33.100Z,13.20
2024-02-10T01:24:21.565Z,13.22
2024-02-10T01:27:11.057Z,13.29
2024-02-10T01:29:57.917Z,13.21
2024-02-10T01:32:43.545Z,13.28
2024-02-10T01:35:29.023Z,13.36
2024-02-10T01:38:14.284Z,13.53
2024-02-10T01:40:59.534Z,13.33
2024-02-10T01:43:45.700Z,13.16
2024-02-10T01:46:31.450Z,13.18
2024-02-10T01:49:18.882Z,12.83
2024-02-10T01:52:06.719Z,13.06
2024-02-10T01:54:52.150Z,13.22
2024-02-10T01:57:37.986Z,13.20
2024-02-10T02:00:26.319Z,13.16
2024-02-10T02:03:12.099Z,13.31
2024-02-10T02:05:57.918Z,13.43
2024-02-10T02:08:43.972Z,13.36
2024-02-10T02:11:31.898Z,13.32
2024-02-10T02:14:17.115Z,13.30
2024-02-10T02:17:02.315Z,13.02
2024-02-10T02:19:47.853Z,13.11
2024-02-10T02:22:33.427Z,13.09
2024-02-10T02:25:19.917Z,13.06
2024-02-10T02:28:05.270Z,12.89
2024-02-10T02:30:50.882Z,13.08
2024-02-10T02:33:37.613Z,13.01
2024-02-10T02:36:22.968Z,13.20
2024-02-10T02:39:09.560Z,13.22
2024-02-10T02:42:01.021Z,13.23
2024-02-10T02:44:47.110Z,13.02
2024-02-10T02:47:33.590Z,12.95
2024-02-10T02:50:19.998Z,12.79
2024-02-10T02:53:05.424Z,13.02
2024-02-10T02:55:50.834Z,13.35
2024-02-10T02:58:36.339Z,13.44
2024-02-10T03:01:23.373Z,13.17
2024-02-10T03:04:09.503Z,12.98
2024-02-10T03:06:56.253Z,12.73
2024-02-10T03:09:42.873Z,12.69
2024-02-10T03:12:27.850Z,12.77
2024-02-10T03:15:13.847Z,12.67
2024-02-10T03:17:59.678Z,12.55
2024-02-10T03:20:45.563Z,12.26
2024-02-10T03:23:33.018Z,12.53
2024-02-10T03:26:18.478Z,12.46
2024-02-10T03:29:04.960Z,12.62
2024-02-10T03:31:50.386Z,12.73
2024-02-10T03:34:36.201Z,12.73
2024-02-10T03:37:22.992Z,12.56
2024-02-10T03:40:10.497Z,12.36
2024-02-10T03:42:55.637Z,12.41
2024-02-10T03:45:41.308Z,12.13
2024-02-10T03:48:26.636Z,12.62
2024-02-10T03:51:13.358Z,12.54
2024-02-10T03:53:58.510Z,12.78
2024-02-10T03:56:48.199Z,12.73
2024-02-10T03:59:33.645Z,12.62
2024-02-10T04:02:19.943Z,12.77
2024-02-10T04:05:07.277Z,12.64
2024-02-10T04:07:54.160Z,12.95
2024-02-10T04:10:39.909Z,13.00
2024-02-10T04:13:25.269Z,12.85
2024-02-10T04:16:14.428Z,12.95
2024-02-10T04:19:00.875Z,13.04
2024-02-10T04:21:51.382Z,13.07
2024-02-10T04:24:36.387Z,13.11
2024-02-10T04:27:21.524Z,13.25
2024-02-10T04:30:12.030Z,13.38
2024-02-10T04:32:57.772Z,13.17
2024-02-10T04:35:43.012Z,13.07
2024-02-10T04:38:28.296Z,13.26
2024-02-10T04:41:13.501Z,13.38
2024-02-10T04:43:58.905Z,13.27
2024-02-10T04:46:44.202Z,13.18
2024-02-10T04:49:29.339Z,13.13
2024-02-10T04:52:14.728Z,13.24
2024-02-10T04:55:01.128Z,13.25
2024-02-10T04:57:46.546Z,13.16
2024-02-10T05:00:33.708Z,13.18
2024-02-10T05:03:19.057Z,13.11
2024-02-10T05:06:04.639Z,13.11
2024-02-10T05:08:49.829Z,12.96
2024-02-10T05:11:37.795Z,13.06
2024-02-10T05:14:23.553Z,13.11
2024-02-10T05:17:08.691Z,13.02
2024-02-10T05:19:53.931Z,12.90
2024-02-10T05:22:39.401Z,12.75
2024-02-10T05:25:26.211Z,12.74
2024-02-10T05:28:11.225Z,12.80
2024-02-10T05:30:58.928Z,12.74
2024-02-10T05:33:44.838Z,12.74
2024-02-10T05:36:36.051Z,12.51
2024-02-10T05:39:22.257Z,12.54
2024-02-10T05:42:07.942Z,12.57
2024-02-10T05:44:53.229Z,12.72
2024-02-10T05:47:40.725Z,12.76
2024-02-10T05:50:26.458Z,13.04
2024-02-10T05:53:12.849Z,13.07
2024-02-10T05:55:58.725Z,13.04
2024-02-10T05:58:44.488Z,13.21
2024-02-10T06:01:29.874Z,12.86
2024-02-10T06:04:15.413Z,12.44
2024-02-10T06:07:00.524Z,12.58
2024-02-10T06:09:46.686Z,12.94
2024-02-10T06:12:32.438Z,13.10
2024-02-10T06:15:19.865Z,13.05
2024-02-10T06:18:06.026Z,13.02
2024-02-10T06:20:51.365Z,13.13
2024-02-10T06:23:36.789Z,13.13
2024-02-10T06:26:21.862Z,12.99
2024-02-10T06:29:09.025Z,13.00
2024-02-10T06:31:55.050Z,13.09
2024-02-10T06:34:43.108Z,13.16
2024-02-10T06:37:28.223Z,13.18
2024-02-10T06:40:16.656Z,13.28
2024-02-10T06:43:03.910Z,13.22
2024-02-10T06:45:49.159Z,13.00
2024-02-10T06:48:34.740Z,12.98
2024-02-10T06:51:23.017Z,12.94
2024-02-10T06:54:08.836Z,13.07
2024-02-10T06:56:56.364Z,13.16
2024-02-10T06:59:41.741Z,13.15
2024-02-10T07:02:27.001Z,13.15
2024-02-10T07:05:19.436Z,13.11
2024-02-10T07:08:09.102Z,13.09
2024-02-10T07:10:54.613Z,13.06
2024-02-10T07:13:39.902Z,12.97
2024-02-10T07:16:25.245Z,13.25
2024-02-10T07:19:11.646Z,13.21
2024-02-10T07:22:00.120Z,12.62
2024-02-10T07:24:48.104Z,12.78
2024-02-10T07:27:34.311Z,12.78
2024-02-10T07:30:20.285Z,12.92
2024-02-10T07:33:11.204Z,12.66
2024-02-10T07:36:00.139Z,12.76
2024-02-10T07:38:45.193Z,12.77
2024-02-10T07:41:30.652Z,12.68
2024-02-10T07:44:18.755Z,12.37
2024-02-10T07:47:05.067Z,12.75
2024-02-10T07:49:52.085Z,13.02
2024-02-10T07:52:39.265Z,12.88
2024-02-10T07:55:25.114Z,12.81
2024-02-10T07:58:13.849Z,12.61
2024-02-10T08:01:02.736Z,12.71
2024-02-10T08:03:48.694Z,12.62
2024-02-10T08:06:34.602Z,12.63
2024-02-10T08:09:21.564Z,12.91
2024-02-10T08:12:07.290Z,12.71
2024-02-10T08:14:56.764Z,13.02
2024-02-10T08:17:42.479Z,12.97
2024-02-10T08:20:29.882Z,12.88
2024-02-10T08:23:15.662Z,12.89
2024-02-10T08:26:01.261Z,12.81
2024-02-10T08:28:51.694Z,12.80
2024-02-10T08:31:37.875Z,12.77
2024-02-10T08:34:24.219Z,12.72
2024-02-10T08:37:13.878Z,12.54
2024-02-10T08:39:59.326Z,12.58
2024-02-10T08:42:44.599Z,12.70
2024-02-10T08:45:30.116Z,12.71
2024-02-10T08:48:16.270Z,12.84
2024-02-10T08:51:02.124Z,13.01
2024-02-10T08:53:48.246Z,12.89
2024-02-10T08:56:39.991Z,13.01
2024-02-10T08:59:25.169Z,13.20
2024-02-10T09:02:11.300Z,13.36
2024-02-10T09:04:56.913Z,13.37
2024-02-10T09:07:42.224Z,13.47
2024-02-10T09:10:38.654Z,13.26
2024-02-10T09:13:26.181Z,13.03
2024-02-10T09:16:12.091Z,13.28
2024-02-10T09:18:58.670Z,13.41
2024-02-10T09:21:46.970Z,13.57
2024-02-10T09:24:34.702Z,13.67
2024-02-10T09:27:20.406Z,13.63
2024-02-10T09:30:13.753Z,13.77
2024-02-10T09:32:59.053Z,13.84
2024-02-10T09:35:44.295Z,13.82
2024-02-10T09:38:30.242Z,13.80
2024-02-10T09:41:16.046Z,13.67
2024-02-10T09:44:01.492Z,13.68
2024-02-10T09:46:51.867Z,13.69
2024-02-10T09:49:40.769Z,13.69
2024-02-10T09:52:26.294Z,13.53
2024-02-10T09:55:11.241Z,13.63
2024-02-10T09:57:56.898Z,13.57
2024-02-10T10:00:42.993Z,13.58
2024-02-10T10:03:28.248Z,13.47
2024-02-10T10:06:14.018Z,13.43
2024-02-10T10:08:59.746Z,13.73
2024-02-10T10:11:46.656Z,13.81
2024-02-10T10:14:31.754Z,14.08
2024-02-10T10:17:16.765Z,13.99
2024-02-10T10:20:10.763Z,13.91
2024-02-10T10:22:56.544Z,14.20
2024-02-10T10:25:45.243Z,14.17
2024-02-10T10:28:34.556Z,14.24
2024-02-10T10:31:23.353Z,14.14
2024-02-10T10:34:11.377Z,14.37
2024-02-10T10:36:57.901Z,14.64
2024-02-10T10:39:48.395Z,14.70
2024-02-10T10:42:35.011Z,14.86
2024-02-10T10:45:20.987Z,15.01
2024-02-10T10:48:07.057Z,14.82
2024-02-10T10:50:57.266Z,14.97
2024-02-10T10:53:43.750Z,15.07
2024-02-10T10:56:34.267Z,14.59
2024-02-10T10:59:20.488Z,14.62
2024-02-10T11:02:09.414Z,14.76
2024-02-10T11:05:09.437Z,14.88
2024-02-10T11:08:01.910Z,15.09
2024-02-10T11:10:50.056Z,15.13
2024-02-10T11:13:37.130Z,15.21
2024-02-10T11:16:31.012Z,15.08
2024-02-10T11:19:18.252Z,14.82
2024-02-10T11:22:07.895Z,14.68
2024-02-10T11:24:55.169Z,14.72
2024-02-10T11:27:42.145Z,14.68
2024-02-10T11:30:32.785Z,14.77
2024-02-10T11:33:26.161Z,14.88
2024-02-10T11:36:12.383Z,14.76
2024-02-10T11:38:58.174Z,14.84
2024-02-10T11:41:43.974Z,14.98
2024-02-10T11:44:30.985Z,15.08
2024-02-10T11:47:16.623Z,15.37
2024-02-10T11:50:03.515Z,15.52
2024-02-10T11:52:49.277Z,15.45
2024-02-10T11:55:35.926Z,15.62
2024-02-10T11:58:24.805Z,15.34
2024-02-10T12:01:10.240Z,15.15
2024-02-10T12:03:55.839Z,15.15
2024-02-10T12:06:41.379Z,15.46
2024-02-10T12:09:28.180Z,15.58
2024-02-10T12:12:15.164Z,15.58
2024-02-10T12:15:05.108Z,15.47
2024-02-10T12:17:50.476Z,15.39
2024-02-10T12:20:41.379Z,15.44
2024-02-10T12:23:31.333Z,15.68
2024-02-10T12:26:17.299Z,15.61
2024-02-10T12:29:03.032Z,15.60
2024-02-10T12:31:51.329Z,15.41
2024-02-10T12:34:36.674Z,15.29
2024-02-10T12:37:25.151Z,15.34
2024-02-10T12:40:12.046Z,15.42
2024-02-10T12:42:57.645Z,15.38
2024-02-10T12:45:47.975Z,15.34
2024-02-10T12:51:09.247Z,14.95
2024-02-10T12:56:31.425Z,15.23
2024-02-10T12:59:17.625Z,15.28
2024-02-10T13:04:41.888Z,14.98
2024-02-10T13:07:27.614Z,15.25
2024-02-10T13:10:22.673Z,15.40
2024-02-10T13:13:08.486Z,15.52
2024-02-10T13:15:53.806Z,15.56
2024-02-10T13:18:45.352Z,15.63
2024-02-10T13:21:34.083Z,15.66
2024-02-10T13:24:21.963Z,15.49
2024-02-10T13:27:07.241Z,15.55
2024-02-10T13:29:52.614Z,15.78
2024-02-10T13:32:39.590Z,15.88
2024-02-10T13:35:28.317Z,15.75
2024-02-10T13:38:33.059Z,15.75
2024-02-10T13:41:36.729Z,15.67
2024-02-10T13:44:40.522Z,15.78
2024-02-10T13:47:43.861Z,15.74
2024-02-10T13:50:47.367Z,15.65
2024-02-10T13:53:51.137Z,15.77
2024-02-10T13:56:54.673Z,15.84
2024-02-10T13:59:39.801Z,15.80
2024-02-10T14:02:25.074Z,15.87
2024-02-10T14:05:14.718Z,15.73
2024-02-10T14:08:15.329Z,15.60
2024-02-10T14:11:02.331Z,15.60
2024-02-10T14:13:51.951Z,15.69
2024-02-10T14:16:39.014Z,15.65
2024-02-10T14:19:24.833Z,15.65
2024-02-10T14:22:13.504Z,15.61
2024-02-10T14:24:59.513Z,15.57
2024-02-10T14:27:44.863Z,15.51
2024-02-10T14:30:37.926Z,15.17
2024-02-10T14:33:33.763Z,15.28
2024-02-10T14:36:41.206Z,15.28
2024-02-10T14:39:28.212Z,15.28
2024-02-10T14:42:15.098Z,15.28
2024-02-10T14:45:00.544Z,15.17
2024-02-10T14:47:46.084Z,15.09
2024-02-10T14:50:31.743Z,14.75
2024-02-10T14:53:17.139Z,14.87
2024-02-10T14:56:05.663Z,14.96
2024-02-10T14:58:54.550Z,15.10
2024-02-10T15:01:40.826Z,15.18
2024-02-10T15:04:26.232Z,15.07
2024-02-10T15:07:11.808Z,15.07
2024-02-10T15:09:56.980Z,15.11
2024-02-10T15:12:42.490Z,14.92
2024-02-10T15:15:28.697Z,14.85
2024-02-10T15:18:17.343Z,15.13
2024-02-10T15:21:02.817Z,15.10
2024-02-10T15:23:51.461Z,15.09
2024-02-10T15:26:38.000Z,15.11
2024-02-10T15:29:23.102Z,14.77
2024-02-10T15:32:09.886Z,14.54
2024-02-10T15:37:42.903Z,14.59
2024-02-10T15:40:28.390Z,14.74
2024-02-10T15:43:16.868Z,14.80
2024-02-10T15:46:02.814Z,14.66
2024-02-10T15:48:55.589Z,14.55
2024-02-10T15:51:41.301Z,14.71
2024-02-10T15:54:26.374Z,14.51
2024-02-10T15:57:11.901Z,14.57
2024-02-10T15:59:57.156Z,14.44
2024-02-10T16:02:42.652Z,14.53
2024-02-10T16:05:31.185Z,14.51
2024-02-10T16:08:20.780Z,14.39
2024-02-10T16:11:05.976Z,14.53
2024-02-10T16:13:52.056Z,14.40
2024-02-10T16:16:37.389Z,14.25
2024-02-10T16:19:22.925Z,14.32
2024-02-10T16:22:08.120Z,14.03
2024-02-10T16:24:54.025Z,14.23
2024-02-10T16:27:41.056Z,14.31
2024-02-10T16:30:28.771Z,14.31
2024-02-10T16:33:14.769Z,14.30
2024-02-10T16:36:00.272Z,14.40
2024-02-10T16:38:45.997Z,14.33
2024-02-10T16:41:34.717Z,14.20
2024-02-10T16:44:20.084Z,14.25
2024-02-10T16:47:09.428Z,14.20
2024-02-10T16:49:56.641Z,14.24
2024-02-10T16:52:42.430Z,14.04
2024-02-10T16:55:28.370Z,13.88
2024-02-10T17:00:59.563Z,13.98
2024-02-10T17:03:44.992Z,14.18
2024-02-10T17:06:32.917Z,14.28
2024-02-10T17:09:18.895Z,14.21
2024-02-10T17:12:04.196Z,14.08
2024-02-10T17:14:49.670Z,13.97
2024-02-10T17:17:35.112Z,13.89
2024-02-10T17:20:21.843Z,14.01
2024-02-10T17:23:09.307Z,14.19
2024-02-10T17:25:59.345Z,14.22
2024-02-10T17:28:44.575Z,14.30
2024-02-10T17:31:29.854Z,14.36
2024-02-10T17:34:15.290Z,14.31
2024-02-10T17:37:01.166Z,14.17
2024-02-10T17:39:46.493Z,14.20
2024-02-10T17:42:32.055Z,14.35
2024-02-10T17:45:17.438Z,14.32
2024-02-10T17:48:03.075Z,14.00
2024-02-10T17:50:49.482Z,13.94
2024-02-10T17:53:37.556Z,14.06
2024-02-10T17:56:24.405Z,14.02
2024-02-10T17:59:12.005Z,14.01
2024-02-10T18:02:01.204Z,14.15
2024-02-10T18:04:50.761Z,13.91
2024-02-10T18:07:36.632Z,13.87
2024-02-10T18:10:22.052Z,13.95
2024-02-10T18:13:07.263Z,13.95
2024-02-10T18:15:52.496Z,14.06
2024-02-10T18:18:37.794Z,14.00
2024-02-10T18:21:23.299Z,13.77
2024-02-10T18:24:10.096Z,13.83
2024-02-10T18:26:57.141Z,13.56
2024-02-10T18:29:42.365Z,13.82
2024-02-10T18:32:27.476Z,13.52
2024-02-10T18:35:12.990Z,13.75
2024-02-10T18:37:58.979Z,13.49
2024-02-10T18:40:44.420Z,13.74
2024-02-10T18:43:31.262Z,13.39
2024-02-10T18:46:17.010Z,13.77
2024-02-10T18:49:02.346Z,13.31
2024-02-10T18:51:47.672Z,13.57
2024-02-10T18:54:33.862Z,13.46
2024-02-10T18:57:20.232Z,13.58
2024-02-10T19:00:10.114Z,13.56
2024-02-10T19:02:56.222Z,13.40
2024-02-10T19:05:41.452Z,13.37
2024-02-10T19:08:26.669Z,13.58
2024-02-10T19:11:11.931Z,13.64
2024-02-10T19:13:58.932Z,13.56
2024-02-10T19:16:44.392Z,13.52
2024-02-10T19:19:29.626Z,13.51
2024-02-10T19:22:14.773Z,13.44
2024-02-10T19:25:09.158Z,13.43
2024-02-10T19:27:56.096Z,13.42
2024-02-10T19:30:41.590Z,13.43
2024-02-10T19:33:26.613Z,13.42
2024-02-10T19:36:12.427Z,13.40
2024-02-10T19:38:57.504Z,13.32
2024-02-10T19:41:46.218Z,13.30
2024-02-10T19:44:31.423Z,13.36
2024-02-10T19:47:18.439Z,13.26
2024-02-10T19:50:03.910Z,13.18
2024-02-10T19:52:49.500Z,13.12
2024-02-10T19:55:35.145Z,13.30
2024-02-10T19:58:24.452Z,13.33
2024-02-10T20:01:10.635Z,13.10
2024-02-10T20:03:57.258Z,13.14
2024-02-10T20:06:45.443Z,13.21
2024-02-10T20:09:30.856Z,13.21
2024-02-10T20:12:19.262Z,13.04
2024-02-10T20:15:04.765Z,13.20
2024-02-10T20:17:53.513Z,13.26
2024-02-10T20:20:39.097Z,13.17
2024-02-10T20:23:24.594Z,13.21
2024-02-10T20:26:14.348Z,13.09
2024-02-10T20:29:00.940Z,13.20
2024-02-10T20:31:49.535Z,13.30
2024-02-10T20:34:35.525Z,13.35
2024-02-10T20:37:23.318Z,13.39
2024-02-10T20:40:13.571Z,13.39
2024-02-10T20:43:02.268Z,13.36
2024-02-10T20:45:47.943Z,13.25
2024-02-10T20:48:33.343Z,13.19
2024-02-10T20:51:18.808Z,13.30
2024-02-10T20:54:09.475Z,13.25
2024-02-10T20:56:57.956Z,13.42
2024-02-10T20:59:43.281Z,13.21
2024-02-10T21:02:28.870Z,13.25
2024-02-10T21:05:14.965Z,13.34
2024-02-10T21:08:00.366Z,12.88
2024-02-10T21:10:45.828Z,13.23
2024-02-10T21:13:33.971Z,13.34
2024-02-10T21:16:18.867Z,13.31
2024-02-10T21:19:04.844Z,13.26
2024-02-10T21:21:53.228Z,13.39
2024-02-10T21:24:38.392Z,13.17
2024-02-10T21:27:26.559Z,13.32
2024-02-10T21:30:14.623Z,13.43
2024-02-10T21:33:01.964Z,13.26
2024-02-10T21:35:47.219Z,13.34
2024-02-10T21:38:32.464Z,13.15
2024-02-10T21:41:21.129Z,12.97
2024-02-10T21:44:14.261Z,13.10
2024-02-10T21:47:00.038Z,12.64
2024-02-10T21:49:45.151Z,13.20
2024-02-10T21:52:30.681Z,13.34
2024-02-10T21:55:16.151Z,13.19
2024-02-10T21:58:02.181Z,13.33
2024-02-10T22:00:48.946Z,13.06
2024-02-10T22:03:34.368Z,13.14
2024-02-10T22:06:19.372Z,12.77
2024-02-10T22:09:04.826Z,12.91
2024-02-10T22:11:51.257Z,12.96
2024-02-10T22:14:38.016Z,13.09
2024-02-10T22:17:23.721Z,12.93
2024-02-10T22:20:13.494Z,13.02
2024-02-10T22:22:58.849Z,12.91
2024-02-10T22:25:48.739Z,12.89
2024-02-10T22:28:34.628Z,12.84
2024-02-10T22:31:20.258Z,12.94
2024-02-10T22:34:06.191Z,12.92
2024-02-10T22:36:53.921Z,12.86
2024-02-10T22:39:39.998Z,12.72
2024-02-10T22:42:25.584Z,12.83
2024-02-10T22:45:11.661Z,12.79
2024-02-10T22:47:57.042Z,12.75
2024-02-10T22:50:47.222Z,12.90
2024-02-10T22:53:40.388Z,12.82
2024-02-10T22:56:26.360Z,12.72
2024-02-10T22:59:12.947Z,12.75
2024-02-10T23:01:58.755Z,12.66
2024-02-10T23:04:48.177Z,12.54
2024-02-10T23:07:35.089Z,12.75
2024-02-10T23:10:20.236Z,12.38
2024-02-10T23:13:08.512Z,12.34
2024-02-10T23:15:53.700Z,12.45
2024-02-10T23:18:39.004Z,12.43
2024-02-10T23:21:27.948Z,12.90
2024-02-10T23:24:12.913Z,12.71
2024-02-10T23:26:59.885Z,12.48
2024-02-10T23:29:46.599Z,12.88
2024-02-10T23:32:32.406Z,12.76
2024-02-10T23:35:17.865Z,12.70
2024-02-10T23:38:04.226Z,12.77
2024-02-10T23:40:49.717Z,12.86
2024-02-10T23:43:38.153Z,12.92
2024-02-10T23:46:24.223Z,12.95
2024-02-10T23:49:13.844Z,12.97
2024-02-10T23:52:00.586Z,12.90
2024-02-10T23:54:49.396Z,12.74
2024-02-10T23:57:35.908Z,12.86
